Terminal Aerodrome Forecast
Issued by NWS Greer, SC

Home | Current Version | Previous Version | Text Only | Print | Product List | Glossary On
Versions: 1 2 3 4 5 6 7 8 9 10 11 12 13 14 15 16 17 18 19 20 21 22 23 24 25 26 27 28 29 30 31 32 33 34 35 36 37 38 39 40 41 42
661
FTUS42 KGSP 010540
TAFCLT
TAF
KCLT 010540Z 0106/0206 19004KT P6SM SCT250
     FM011700 24006KT P6SM SCT050 BKN250 PROB30 0120/0124 4SM -TSRA
      OVC025CB
     FM020000 00000KT 6SM -SHRA BKN070 PROB30 0200/0203 4SM TSRA
      OVC040CB
     FM020300 03005KT P6SM BKN080 PROB30 0203/0206 4SM -SHRA OVC040=

USA.gov is the U.S. government's official web portal to all federal, state and local government web resources and services.